sensor_id;sensor_type;location;lat;lon;timestamp;temperature;humidity
21429;DHT22;10875;50.444;30.540;2022-09-09T00:01:37;11.30;99.90
21429;DHT22;10875;50.444;30.540;2022-09-09T00:12:12;11.20;99.90
21429;DHT22;10875;50.444;30.540;2022-09-09T00:15:07;11.20;99.90
21429;DHT22;10875;50.444;30.540;2022-09-09T00:17:43;11.10;99.90
21429;DHT22;10875;50.444;30.540;2022-09-09T00:22:57;11.10;99.90
21429;DHT22;10875;50.444;30.540;2022-09-09T00:26:04;11.10;99.90
21429;DHT22;10875;50.444;30.540;2022-09-09T00:28:39;11.00;99.90
21429;DHT22;10875;50.444;30.540;2022-09-09T00:31:23;10.90;99.90
21429;DHT22;10875;50.444;30.540;2022-09-09T00:33:50;10.90;99.90
21429;DHT22;10875;50.444;30.540;2022-09-09T00:36:20;10.90;99.90
21429;DHT22;10875;50.444;30.540;2022-09-09T00:38:59;10.90;99.90
21429;DHT22;10875;50.444;30.540;2022-09-09T00:47:12;10.90;99.90
21429;DHT22;10875;50.444;30.540;2022-09-09T00:49:53;10.90;99.90
21429;DHT22;10875;50.444;30.540;2022-09-09T00:57:42;10.80;99.90
21429;DHT22;10875;50.444;30.540;2022-09-09T01:00:23;10.70;99.90
21429;DHT22;10875;50.444;30.540;2022-09-09T01:08:01;10.90;99.90
21429;DHT22;10875;50.444;30.540;2022-09-09T01:10:41;10.80;99.90
21429;DHT22;10875;50.444;30.540;2022-09-09T01:13:26;10.90;99.90
21429;DHT22;10875;50.444;30.540;2022-09-09T01:15:53;10.90;99.90
21429;DHT22;10875;50.444;30.540;2022-09-09T01:18:27;10.90;99.90
21429;DHT22;10875;50.444;30.540;2022-09-09T01:21:29;10.80;99.90
21429;DHT22;10875;50.444;30.540;2022-09-09T01:26:46;10.70;99.90
21429;DHT22;10875;50.444;30.540;2022-09-09T01:29:15;10.70;99.90
21429;DHT22;10875;50.444;30.540;2022-09-09T01:31:52;10.60;99.90
21429;DHT22;10875;50.444;30.540;2022-09-09T01:34:17;10.80;99.90
21429;DHT22;10875;50.444;30.540;2022-09-09T01:37:02;10.50;99.90
21429;DHT22;10875;50.444;30.540;2022-09-09T01:39:28;10.50;99.90
21429;DHT22;10875;50.444;30.540;2022-09-09T01:41:55;10.50;99.90
21429;DHT22;10875;50.444;30.540;2022-09-09T01:44:22;10.50;99.90
21429;DHT22;10875;50.444;30.540;2022-09-09T01:46:48;10.40;99.90
21429;DHT22;10875;50.444;30.540;2022-09-09T01:49:14;10.40;99.90
21429;DHT22;10875;50.444;30.540;2022-09-09T01:51:42;10.30;99.90
21429;DHT22;10875;50.444;30.540;2022-09-09T01:54:08;10.20;99.90
21429;DHT22;10875;50.444;30.540;2022-09-09T02:02:17;10.20;99.90
21429;DHT22;10875;50.444;30.540;2022-09-09T02:04:48;10.10;99.90
21429;DHT22;10875;50.444;30.540;2022-09-09T02:10:16;10.10;99.90
21429;DHT22;10875;50.444;30.540;2022-09-09T02:12:47;10.00;99.90
21429;DHT22;10875;50.444;30.540;2022-09-09T02:15:38;10.00;99.90
21429;DHT22;10875;50.444;30.540;2022-09-09T02:18:07;10.00;99.90
21429;DHT22;10875;50.444;30.540;2022-09-09T02:20:36;10.00;99.90
21429;DHT22;10875;50.444;30.540;2022-09-09T02:23:02;10.00;99.90
21429;DHT22;10875;50.444;30.540;2022-09-09T02:25:29;9.90;99.90
21429;DHT22;10875;50.444;30.540;2022-09-09T02:27:56;9.90;99.90
21429;DHT22;10875;50.444;30.540;2022-09-09T02:30:28;10.00;99.90
21429;DHT22;10875;50.444;30.540;2022-09-09T02:32:56;10.00;99.90
21429;DHT22;10875;50.444;30.540;2022-09-09T02:35:24;10.10;99.90
21429;DHT22;10875;50.444;30.540;2022-09-09T02:37:53;10.00;99.90
21429;DHT22;10875;50.444;30.540;2022-09-09T02:40:20;9.90;99.90
21429;DHT22;10875;50.444;30.540;2022-09-09T02:42:48;9.90;99.90
21429;DHT22;10875;50.444;30.540;2022-09-09T02:45:16;9.90;99.90
21429;DHT22;10875;50.444;30.540;2022-09-09T02:48:14;9.80;99.90
21429;DHT22;10875;50.444;30.540;2022-09-09T02:51:00;9.70;99.90
21429;DHT22;10875;50.444;30.540;2022-09-09T02:53:41;9.70;99.90
21429;DHT22;10875;50.444;30.540;2022-09-09T02:56:14;9.70;99.90
21429;DHT22;10875;50.444;30.540;2022-09-09T02:58:41;9.70;99.90
21429;DHT22;10875;50.444;30.540;2022-09-09T03:01:07;9.60;99.90
21429;DHT22;10875;50.444;30.540;2022-09-09T03:03:34;9.60;99.90
21429;DHT22;10875;50.444;30.540;2022-09-09T03:06:00;9.60;99.90
21429;DHT22;10875;50.444;30.540;2022-09-09T03:08:26;9.60;99.90
21429;DHT22;10875;50.444;30.540;2022-09-09T03:10:54;9.50;99.90
21429;DHT22;10875;50.444;30.540;2022-09-09T03:13:20;9.50;99.90
21429;DHT22;10875;50.444;30.540;2022-09-09T03:15:47;9.50;99.90
21429;DHT22;10875;50.444;30.540;2022-09-09T03:18:13;9.50;99.90
21429;DHT22;10875;50.444;30.540;2022-09-09T03:20:39;9.50;99.90
21429;DHT22;10875;50.444;30.540;2022-09-09T03:23:07;9.50;99.90
21429;DHT22;10875;50.444;30.540;2022-09-09T03:25:33;9.50;99.90
21429;DHT22;10875;50.444;30.540;2022-09-09T03:27:58;9.80;99.90
21429;DHT22;10875;50.444;30.540;2022-09-09T03:30:26;9.40;99.90
21429;DHT22;10875;50.444;30.540;2022-09-09T03:32:52;9.50;99.90
21429;DHT22;10875;50.444;30.540;2022-09-09T03:35:18;9.40;99.90
21429;DHT22;10875;50.444;30.540;2022-09-09T03:37:43;9.40;99.90
21429;DHT22;10875;50.444;30.540;2022-09-09T03:40:09;9.40;99.90
21429;DHT22;10875;50.444;30.540;2022-09-09T03:42:36;9.50;99.90
21429;DHT22;10875;50.444;30.540;2022-09-09T03:45:05;9.50;99.90
21429;DHT22;10875;50.444;30.540;2022-09-09T03:47:32;9.50;99.90
21429;DHT22;10875;50.444;30.540;2022-09-09T03:49:57;9.50;99.90
21429;DHT22;10875;50.444;30.540;2022-09-09T03:52:23;9.50;99.90
21429;DHT22;10875;50.444;30.540;2022-09-09T03:54:51;9.60;99.90
21429;DHT22;10875;50.444;30.540;2022-09-09T03:57:18;9.60;99.90
21429;DHT22;10875;50.444;30.540;2022-09-09T03:59:44;9.90;99.90
21429;DHT22;10875;50.444;30.540;2022-09-09T04:02:10;9.60;99.90
21429;DHT22;10875;50.444;30.540;2022-09-09T04:04:35;9.70;99.90
21429;DHT22;10875;50.444;30.540;2022-09-09T04:07:02;9.70;99.90
21429;DHT22;10875;50.444;30.540;2022-09-09T04:09:27;9.70;99.90
21429;DHT22;10875;50.444;30.540;2022-09-09T04:11:53;9.60;99.90
21429;DHT22;10875;50.444;30.540;2022-09-09T04:14:20;9.60;99.90
21429;DHT22;10875;50.444;30.540;2022-09-09T04:16:46;9.70;99.90
21429;DHT22;10875;50.444;30.540;2022-09-09T04:19:12;9.60;99.90
21429;DHT22;10875;50.444;30.540;2022-09-09T04:21:40;9.60;99.90
21429;DHT22;10875;50.444;30.540;2022-09-09T04:24:06;9.60;99.90
21429;DHT22;10875;50.444;30.540;2022-09-09T04:26:33;9.60;99.90
21429;DHT22;10875;50.444;30.540;2022-09-09T04:28:59;9.50;99.90
21429;DHT22;10875;50.444;30.540;2022-09-09T04:31:24;9.50;99.90
21429;DHT22;10875;50.444;30.540;2022-09-09T04:33:50;9.50;99.90
21429;DHT22;10875;50.444;30.540;2022-09-09T04:36:17;9.50;99.90
21429;DHT22;10875;50.444;30.540;2022-09-09T04:38:43;9.90;99.90
21429;DHT22;10875;50.444;30.540;2022-09-09T04:41:09;9.50;99.90
21429;DHT22;10875;50.444;30.540;2022-09-09T04:43:37;9.50;99.90
21429;DHT22;10875;50.444;30.540;2022-09-09T04:46:03;9.50;99.90
21429;DHT22;10875;50.444;30.540;2022-09-09T04:48:29;9.60;99.90
21429;DHT22;10875;50.444;30.540;2022-09-09T04:50:58;9.70;99.90
21429;DHT22;10875;50.444;30.540;2022-09-09T04:53:24;9.70;99.90
21429;DHT22;10875;50.444;30.540;2022-09-09T04:55:50;9.80;99.90
21429;DHT22;10875;50.444;30.540;2022-09-09T04:58:16;9.90;99.90
21429;DHT22;10875;50.444;30.540;2022-09-09T05:00:42;10.00;99.90
21429;DHT22;10875;50.444;30.540;2022-09-09T05:03:08;10.30;99.90
21429;DHT22;10875;50.444;30.540;2022-09-09T05:05:36;10.40;99.90
21429;DHT22;10875;50.444;30.540;2022-09-09T05:08:07;10.30;99.90
21429;DHT22;10875;50.444;30.540;2022-09-09T05:10:35;10.30;99.90
21429;DHT22;10875;50.444;30.540;2022-09-09T05:13:01;10.40;99.90
21429;DHT22;10875;50.444;30.540;2022-09-09T05:15:27;10.60;99.90
21429;DHT22;10875;50.444;30.540;2022-09-09T05:17:57;10.60;99.90
21429;DHT22;10875;50.444;30.540;2022-09-09T05:20:23;10.60;99.90
21429;DHT22;10875;50.444;30.540;2022-09-09T05:22:53;10.60;99.90
21429;DHT22;10875;50.444;30.540;2022-09-09T05:25:19;10.60;99.90
21429;DHT22;10875;50.444;30.540;2022-09-09T05:27:45;10.60;99.90
21429;DHT22;10875;50.444;30.540;2022-09-09T05:30:10;10.60;99.90
21429;DHT22;10875;50.444;30.540;2022-09-09T05:32:36;10.70;99.90
21429;DHT22;10875;50.444;30.540;2022-09-09T05:35:02;10.80;99.90
21429;DHT22;10875;50.444;30.540;2022-09-09T05:37:28;10.80;99.90
21429;DHT22;10875;50.444;30.540;2022-09-09T05:39:55;10.70;99.90
21429;DHT22;10875;50.444;30.540;2022-09-09T05:42:21;10.70;99.90
21429;DHT22;10875;50.444;30.540;2022-09-09T05:44:46;10.80;99.90
21429;DHT22;10875;50.444;30.540;2022-09-09T05:47:12;10.90;99.90
21429;DHT22;10875;50.444;30.540;2022-09-09T05:49:37;11.00;99.90
21429;DHT22;10875;50.444;30.540;2022-09-09T05:52:03;11.10;99.90
21429;DHT22;10875;50.444;30.540;2022-09-09T05:54:29;11.30;99.90
21429;DHT22;10875;50.444;30.540;2022-09-09T05:56:55;11.50;99.90
21429;DHT22;10875;50.444;30.540;2022-09-09T05:59:21;11.70;99.90
21429;DHT22;10875;50.444;30.540;2022-09-09T06:01:48;11.80;99.90
21429;DHT22;10875;50.444;30.540;2022-09-09T06:04:14;11.80;99.90
21429;DHT22;10875;50.444;30.540;2022-09-09T06:06:40;11.80;99.90
21429;DHT22;10875;50.444;30.540;2022-09-09T06:09:07;11.80;99.90
21429;DHT22;10875;50.444;30.540;2022-09-09T06:11:35;11.90;99.90
21429;DHT22;10875;50.444;30.540;2022-09-09T06:14:01;12.00;99.90
21429;DHT22;10875;50.444;30.540;2022-09-09T06:16:28;12.20;99.90
21429;DHT22;10875;50.444;30.540;2022-09-09T06:18:55;12.40;99.90
21429;DHT22;10875;50.444;30.540;2022-09-09T06:21:22;12.40;99.90
21429;DHT22;10875;50.444;30.540;2022-09-09T06:23:49;12.40;99.90
21429;DHT22;10875;50.444;30.540;2022-09-09T06:26:18;12.40;99.90
21429;DHT22;10875;50.444;30.540;2022-09-09T06:28:45;12.30;99.90
21429;DHT22;10875;50.444;30.540;2022-09-09T06:31:12;12.30;99.90
21429;DHT22;10875;50.444;30.540;2022-09-09T06:33:40;12.50;99.90
21429;DHT22;10875;50.444;30.540;2022-09-09T06:36:15;12.60;99.90
21429;DHT22;10875;50.444;30.540;2022-09-09T06:38:41;12.70;99.90
21429;DHT22;10875;50.444;30.540;2022-09-09T06:41:09;12.90;99.90
21429;DHT22;10875;50.444;30.540;2022-09-09T06:43:35;13.20;99.90
21429;DHT22;10875;50.444;30.540;2022-09-09T06:46:17;13.30;99.90
21429;DHT22;10875;50.444;30.540;2022-09-09T06:48:43;13.40;99.90
21429;DHT22;10875;50.444;30.540;2022-09-09T06:51:22;13.60;99.90
21429;DHT22;10875;50.444;30.540;2022-09-09T06:53:53;13.80;99.90
21429;DHT22;10875;50.444;30.540;2022-09-09T06:56:37;13.70;99.90
21429;DHT22;10875;50.444;30.540;2022-09-09T06:59:06;13.70;99.90
21429;DHT22;10875;50.444;30.540;2022-09-09T07:01:37;13.80;99.90
21429;DHT22;10875;50.444;30.540;2022-09-09T07:04:03;14.10;99.90
21429;DHT22;10875;50.444;30.540;2022-09-09T07:06:31;14.20;99.90
21429;DHT22;10875;50.444;30.540;2022-09-09T07:08:59;14.20;99.90
21429;DHT22;10875;50.444;30.540;2022-09-09T07:11:28;14.00;99.90
21429;DHT22;10875;50.444;30.540;2022-09-09T07:13:54;13.80;99.90
21429;DHT22;10875;50.444;30.540;2022-09-09T07:16:21;13.70;99.90
21429;DHT22;10875;50.444;30.540;2022-09-09T07:18:50;13.70;99.90
21429;DHT22;10875;50.444;30.540;2022-09-09T07:21:17;13.90;99.90
21429;DHT22;10875;50.444;30.540;2022-09-09T07:23:42;14.10;99.90
21429;DHT22;10875;50.444;30.540;2022-09-09T07:26:14;14.00;99.90
21429;DHT22;10875;50.444;30.540;2022-09-09T07:28:40;14.10;99.90
21429;DHT22;10875;50.444;30.540;2022-09-09T07:31:08;14.30;99.90
21429;DHT22;10875;50.444;30.540;2022-09-09T07:33:38;14.50;99.90
21429;DHT22;10875;50.444;30.540;2022-09-09T07:36:13;14.50;99.90
21429;DHT22;10875;50.444;30.540;2022-09-09T07:38:40;14.60;99.90
21429;DHT22;10875;50.444;30.540;2022-09-09T07:41:08;14.70;99.90
21429;DHT22;10875;50.444;30.540;2022-09-09T07:43:41;15.00;99.90
21429;DHT22;10875;50.444;30.540;2022-09-09T07:46:08;15.20;99.90
21429;DHT22;10875;50.444;30.540;2022-09-09T07:48:34;15.30;99.90
21429;DHT22;10875;50.444;30.540;2022-09-09T07:51:06;15.40;99.90
21429;DHT22;10875;50.444;30.540;2022-09-09T07:53:32;15.60;99.90
21429;DHT22;10875;50.444;30.540;2022-09-09T07:56:09;15.80;99.90
21429;DHT22;10875;50.444;30.540;2022-09-09T07:58:35;15.70;99.90
21429;DHT22;10875;50.444;30.540;2022-09-09T08:01:07;15.70;99.90
21429;DHT22;10875;50.444;30.540;2022-09-09T08:03:33;15.50;99.90
21429;DHT22;10875;50.444;30.540;2022-09-09T08:06:07;15.70;99.90
21429;DHT22;10875;50.444;30.540;2022-09-09T08:08:35;15.80;99.90
21429;DHT22;10875;50.444;30.540;2022-09-09T08:11:12;15.90;99.70
21429;DHT22;10875;50.444;30.540;2022-09-09T08:13:40;16.00;99.30
21429;DHT22;10875;50.444;30.540;2022-09-09T08:16:16;16.00;99.30
21429;DHT22;10875;50.444;30.540;2022-09-09T08:18:42;16.00;98.40
21429;DHT22;10875;50.444;30.540;2022-09-09T08:21:13;15.90;98.80
21429;DHT22;10875;50.444;30.540;2022-09-09T08:23:41;16.10;98.60
21429;DHT22;10875;50.444;30.540;2022-09-09T08:26:08;16.00;98.70
21429;DHT22;10875;50.444;30.540;2022-09-09T08:28:35;16.10;98.00
21429;DHT22;10875;50.444;30.540;2022-09-09T08:31:15;16.20;98.00
21429;DHT22;10875;50.444;30.540;2022-09-09T08:33:42;16.40;97.40
21429;DHT22;10875;50.444;30.540;2022-09-09T08:36:17;16.50;97.00
21429;DHT22;10875;50.444;30.540;2022-09-09T08:38:43;16.30;97.40
21429;DHT22;10875;50.444;30.540;2022-09-09T08:50:28;16.60;97.30
21429;DHT22;10875;50.444;30.540;2022-09-09T08:55:51;17.40;96.10
21429;DHT22;10875;50.444;30.540;2022-09-09T08:58:25;17.70;95.60
21429;DHT22;10875;50.444;30.540;2022-09-09T09:09:31;17.90;92.60
21429;DHT22;10875;50.444;30.540;2022-09-09T09:12:30;17.70;93.30
21429;DHT22;10875;50.444;30.540;2022-09-09T09:14:54;17.70;93.20
21429;DHT22;10875;50.444;30.540;2022-09-09T09:17:23;17.70;93.10
21429;DHT22;10875;50.444;30.540;2022-09-09T09:19:50;17.40;93.20
21429;DHT22;10875;50.444;30.540;2022-09-09T09:24:54;17.60;92.80
21429;DHT22;10875;50.444;30.540;2022-09-09T09:30:13;18.10;92.00
21429;DHT22;10875;50.444;30.540;2022-09-09T09:32:42;18.30;91.50
21429;DHT22;10875;50.444;30.540;2022-09-09T09:35:12;18.40;91.60
21429;DHT22;10875;50.444;30.540;2022-09-09T09:37:40;18.50;90.30
21429;DHT22;10875;50.444;30.540;2022-09-09T09:40:15;18.50;90.10
21429;DHT22;10875;50.444;30.540;2022-09-09T09:42:56;18.20;90.20
21429;DHT22;10875;50.444;30.540;2022-09-09T09:45:41;18.00;90.40
21429;DHT22;10875;50.444;30.540;2022-09-09T09:48:11;17.70;89.60
21429;DHT22;10875;50.444;30.540;2022-09-09T09:50:48;17.60;90.20
21429;DHT22;10875;50.444;30.540;2022-09-09T09:53:32;17.60;90.20
21429;DHT22;10875;50.444;30.540;2022-09-09T09:56:06;17.70;90.40
21429;DHT22;10875;50.444;30.540;2022-09-09T09:58:47;17.80;90.30
21429;DHT22;10875;50.444;30.540;2022-09-09T10:03:51;18.30;89.30
21429;DHT22;10875;50.444;30.540;2022-09-09T10:06:17;18.50;88.40
21429;DHT22;10875;50.444;30.540;2022-09-09T10:08:46;18.50;87.90
21429;DHT22;10875;50.444;30.540;2022-09-09T10:19:13;18.70;86.30
21429;DHT22;10875;50.444;30.540;2022-09-09T10:27:35;19.20;85.50
21429;DHT22;10875;50.444;30.540;2022-09-09T10:30:35;19.10;84.60
21429;DHT22;10875;50.444;30.540;2022-09-09T10:33:30;18.90;85.60
21429;DHT22;10875;50.444;30.540;2022-09-09T10:36:15;19.10;85.00
21429;DHT22;10875;50.444;30.540;2022-09-09T10:38:48;19.30;83.90
21429;DHT22;10875;50.444;30.540;2022-09-09T10:55:20;18.90;79.70
21429;DHT22;10875;50.444;30.540;2022-09-09T10:57:52;18.90;77.40
21429;DHT22;10875;50.444;30.540;2022-09-09T11:00:40;19.10;78.80
21429;DHT22;10875;50.444;30.540;2022-09-09T11:03:15;18.90;78.30
21429;DHT22;10875;50.444;30.540;2022-09-09T11:05:46;18.80;77.90
21429;DHT22;10875;50.444;30.540;2022-09-09T11:08:18;18.70;78.50
21429;DHT22;10875;50.444;30.540;2022-09-09T11:11:36;18.70;79.80
21429;DHT22;10875;50.444;30.540;2022-09-09T11:16:50;18.70;79.30
21429;DHT22;10875;50.444;30.540;2022-09-09T11:19:39;18.60;78.40
21429;DHT22;10875;50.444;30.540;2022-09-09T11:22:32;18.70;78.80
21429;DHT22;10875;50.444;30.540;2022-09-09T11:25:15;18.80;79.50
21429;DHT22;10875;50.444;30.540;2022-09-09T11:30:22;18.60;78.20
21429;DHT22;10875;50.444;30.540;2022-09-09T11:38:45;18.70;78.80
21429;DHT22;10875;50.444;30.540;2022-09-09T11:41:13;18.90;77.80
21429;DHT22;10875;50.444;30.540;2022-09-09T11:43:45;18.90;78.40
21429;DHT22;10875;50.444;30.540;2022-09-09T11:46:14;18.80;78.50
21429;DHT22;10875;50.444;30.540;2022-09-09T11:48:57;18.40;80.20
21429;DHT22;10875;50.444;30.540;2022-09-09T11:54:00;18.40;80.10
21429;DHT22;10875;50.444;30.540;2022-09-09T11:56:51;18.50;79.50
21429;DHT22;10875;50.444;30.540;2022-09-09T11:59:28;18.40;79.40
21429;DHT22;10875;50.444;30.540;2022-09-09T12:02:14;18.20;80.90
21429;DHT22;10875;50.444;30.540;2022-09-09T12:04:46;18.20;81.50
21429;DHT22;10875;50.444;30.540;2022-09-09T12:07:26;18.10;82.00
21429;DHT22;10875;50.444;30.540;2022-09-09T12:12:32;18.40;81.50
21429;DHT22;10875;50.444;30.540;2022-09-09T12:17:42;18.40;80.90
21429;DHT22;10875;50.444;30.540;2022-09-09T12:28:22;18.30;83.10
21429;DHT22;10875;50.444;30.540;2022-09-09T12:30:58;18.30;82.20
21429;DHT22;10875;50.444;30.540;2022-09-09T12:33:24;18.30;83.20
21429;DHT22;10875;50.444;30.540;2022-09-09T12:35:55;18.20;82.30
21429;DHT22;10875;50.444;30.540;2022-09-09T12:38:36;18.10;82.50
21429;DHT22;10875;50.444;30.540;2022-09-09T12:41:02;17.90;83.30
21429;DHT22;10875;50.444;30.540;2022-09-09T12:43:28;17.80;82.70
21429;DHT22;10875;50.444;30.540;2022-09-09T12:46:03;17.80;83.20
21429;DHT22;10875;50.444;30.540;2022-09-09T12:48:38;17.60;83.00
21429;DHT22;10875;50.444;30.540;2022-09-09T12:51:27;17.80;82.40
21429;DHT22;10875;50.444;30.540;2022-09-09T12:53:53;17.70;83.00
21429;DHT22;10875;50.444;30.540;2022-09-09T12:56:22;17.60;83.00
21429;DHT22;10875;50.444;30.540;2022-09-09T12:58:51;17.50;83.30
21429;DHT22;10875;50.444;30.540;2022-09-09T13:01:28;17.70;83.60
21429;DHT22;10875;50.444;30.540;2022-09-09T13:03:54;17.60;82.60
21429;DHT22;10875;50.444;30.540;2022-09-09T13:06:28;17.50;82.70
21429;DHT22;10875;50.444;30.540;2022-09-09T13:08:56;17.50;83.20
21429;DHT22;10875;50.444;30.540;2022-09-09T13:11:27;17.50;82.70
21429;DHT22;10875;50.444;30.540;2022-09-09T13:13:56;17.40;83.40
21429;DHT22;10875;50.444;30.540;2022-09-09T13:16:26;17.30;83.70
21429;DHT22;10875;50.444;30.540;2022-09-09T13:18:55;17.20;83.20
21429;DHT22;10875;50.444;30.540;2022-09-09T13:21:34;17.20;84.00
21429;DHT22;10875;50.444;30.540;2022-09-09T13:24:01;17.20;84.90
21429;DHT22;10875;50.444;30.540;2022-09-09T13:26:29;17.20;84.30
21429;DHT22;10875;50.444;30.540;2022-09-09T13:29:08;17.30;84.20
21429;DHT22;10875;50.444;30.540;2022-09-09T13:31:40;17.20;84.80
21429;DHT22;10875;50.444;30.540;2022-09-09T13:34:27;17.30;84.60
21429;DHT22;10875;50.444;30.540;2022-09-09T13:37:00;17.20;84.60
21429;DHT22;10875;50.444;30.540;2022-09-09T13:39:33;17.20;85.00
21429;DHT22;10875;50.444;30.540;2022-09-09T13:42:00;17.30;85.00
21429;DHT22;10875;50.444;30.540;2022-09-09T13:44:36;17.30;84.80
21429;DHT22;10875;50.444;30.540;2022-09-09T13:47:18;17.20;84.50
21429;DHT22;10875;50.444;30.540;2022-09-09T13:49:45;17.20;84.40
21429;DHT22;10875;50.444;30.540;2022-09-09T13:52:20;17.10;84.30
21429;DHT22;10875;50.444;30.540;2022-09-09T13:54:49;17.00;84.40
21429;DHT22;10875;50.444;30.540;2022-09-09T13:57:23;17.00;84.40
21429;DHT22;10875;50.444;30.540;2022-09-09T13:59:51;16.90;84.10
21429;DHT22;10875;50.444;30.540;2022-09-09T14:02:17;16.80;84.40
21429;DHT22;10875;50.444;30.540;2022-09-09T14:04:43;16.80;84.20
21429;DHT22;10875;50.444;30.540;2022-09-09T14:07:16;16.80;84.40
21429;DHT22;10875;50.444;30.540;2022-09-09T14:09:43;16.80;85.00
21429;DHT22;10875;50.444;30.540;2022-09-09T14:12:11;16.80;85.00
21429;DHT22;10875;50.444;30.540;2022-09-09T14:14:37;16.80;85.40
21429;DHT22;10875;50.444;30.540;2022-09-09T14:17:03;16.80;85.20
21429;DHT22;10875;50.444;30.540;2022-09-09T14:19:29;16.90;85.30
21429;DHT22;10875;50.444;30.540;2022-09-09T14:21:56;16.90;85.50
21429;DHT22;10875;50.444;30.540;2022-09-09T14:24:22;16.90;84.80
21429;DHT22;10875;50.444;30.540;2022-09-09T14:26:48;16.80;85.40
21429;DHT22;10875;50.444;30.540;2022-09-09T14:29:13;16.90;85.80
21429;DHT22;10875;50.444;30.540;2022-09-09T14:31:39;16.90;84.40
21429;DHT22;10875;50.444;30.540;2022-09-09T14:34:04;16.90;84.60
21429;DHT22;10875;50.444;30.540;2022-09-09T14:36:30;16.90;84.20
21429;DHT22;10875;50.444;30.540;2022-09-09T14:38:56;16.90;84.40
21429;DHT22;10875;50.444;30.540;2022-09-09T14:41:22;16.90;83.90
21429;DHT22;10875;50.444;30.540;2022-09-09T14:43:49;16.80;84.00
21429;DHT22;10875;50.444;30.540;2022-09-09T14:46:16;16.70;83.40
21429;DHT22;10875;50.444;30.540;2022-09-09T14:48:42;16.70;83.20
21429;DHT22;10875;50.444;30.540;2022-09-09T14:51:16;16.70;83.70
21429;DHT22;10875;50.444;30.540;2022-09-09T14:53:44;16.70;83.60
21429;DHT22;10875;50.444;30.540;2022-09-09T14:56:13;16.70;84.40
21429;DHT22;10875;50.444;30.540;2022-09-09T14:58:39;16.70;84.30
21429;DHT22;10875;50.444;30.540;2022-09-09T15:01:11;16.70;84.40
21429;DHT22;10875;50.444;30.540;2022-09-09T15:03:38;16.70;84.50
21429;DHT22;10875;50.444;30.540;2022-09-09T15:08:34;16.60;84.50
21429;DHT22;10875;50.444;30.540;2022-09-09T15:11:01;16.60;85.00
21429;DHT22;10875;50.444;30.540;2022-09-09T15:13:27;16.60;84.90
21429;DHT22;10875;50.444;30.540;2022-09-09T15:15:52;16.60;85.00
21429;DHT22;10875;50.444;30.540;2022-09-09T15:18:19;16.70;84.90
21429;DHT22;10875;50.444;30.540;2022-09-09T15:20:46;16.60;84.90
21429;DHT22;10875;50.444;30.540;2022-09-09T15:23:12;16.60;84.90
21429;DHT22;10875;50.444;30.540;2022-09-09T15:25:37;16.60;85.10
21429;DHT22;10875;50.444;30.540;2022-09-09T15:28:03;16.50;84.90
21429;DHT22;10875;50.444;30.540;2022-09-09T15:30:29;16.50;85.10
21429;DHT22;10875;50.444;30.540;2022-09-09T15:32:54;16.60;84.90
21429;DHT22;10875;50.444;30.540;2022-09-09T15:35:20;16.60;85.20
21429;DHT22;10875;50.444;30.540;2022-09-09T15:37:46;16.60;85.50
21429;DHT22;10875;50.444;30.540;2022-09-09T15:40:11;16.60;85.60
21429;DHT22;10875;50.444;30.540;2022-09-09T15:42:37;16.60;84.90
21429;DHT22;10875;50.444;30.540;2022-09-09T15:45:03;16.50;84.80
21429;DHT22;10875;50.444;30.540;2022-09-09T15:47:31;16.50;85.10
21429;DHT22;10875;50.444;30.540;2022-09-09T15:49:57;16.50;85.90
21429;DHT22;10875;50.444;30.540;2022-09-09T15:52:23;16.50;85.90
21429;DHT22;10875;50.444;30.540;2022-09-09T15:54:48;16.50;85.90
21429;DHT22;10875;50.444;30.540;2022-09-09T15:57:14;16.50;85.90
21429;DHT22;10875;50.444;30.540;2022-09-09T15:59:40;16.50;86.10
21429;DHT22;10875;50.444;30.540;2022-09-09T16:02:06;16.50;85.60
21429;DHT22;10875;50.444;30.540;2022-09-09T16:04:32;16.50;86.40
21429;DHT22;10875;50.444;30.540;2022-09-09T16:07:01;16.40;87.30
21429;DHT22;10875;50.444;30.540;2022-09-09T16:09:28;16.40;87.90
21429;DHT22;10875;50.444;30.540;2022-09-09T16:11:58;16.30;87.40
21429;DHT22;10875;50.444;30.540;2022-09-09T16:14:26;16.30;89.30
21429;DHT22;10875;50.444;30.540;2022-09-09T16:16:52;16.30;90.00
21429;DHT22;10875;50.444;30.540;2022-09-09T16:19:18;16.10;90.20
21429;DHT22;10875;50.444;30.540;2022-09-09T16:21:49;16.10;90.60
21429;DHT22;10875;50.444;30.540;2022-09-09T16:24:17;16.00;91.10
21429;DHT22;10875;50.444;30.540;2022-09-09T16:26:46;16.00;91.60
21429;DHT22;10875;50.444;30.540;2022-09-09T16:29:13;16.00;92.00
21429;DHT22;10875;50.444;30.540;2022-09-09T16:31:40;15.90;92.20
21429;DHT22;10875;50.444;30.540;2022-09-09T16:34:06;16.00;92.90
21429;DHT22;10875;50.444;30.540;2022-09-09T16:36:33;15.90;93.10
21429;DHT22;10875;50.444;30.540;2022-09-09T16:39:04;15.80;93.50
21429;DHT22;10875;50.444;30.540;2022-09-09T16:41:31;15.70;93.60
21429;DHT22;10875;50.444;30.540;2022-09-09T16:44:00;15.80;94.50
21429;DHT22;10875;50.444;30.540;2022-09-09T16:46:28;15.70;94.80
21429;DHT22;10875;50.444;30.540;2022-09-09T16:48:57;15.70;94.60
21429;DHT22;10875;50.444;30.540;2022-09-09T16:51:27;15.50;95.40
21429;DHT22;10875;50.444;30.540;2022-09-09T16:53:53;15.50;94.80
21429;DHT22;10875;50.444;30.540;2022-09-09T16:56:20;15.40;95.50
21429;DHT22;10875;50.444;30.540;2022-09-09T16:58:55;15.40;95.80
21429;DHT22;10875;50.444;30.540;2022-09-09T17:01:22;15.40;95.30
21429;DHT22;10875;50.444;30.540;2022-09-09T17:03:51;15.30;95.50
21429;DHT22;10875;50.444;30.540;2022-09-09T17:06:17;15.20;95.30
21429;DHT22;10875;50.444;30.540;2022-09-09T17:08:42;15.40;95.00
21429;DHT22;10875;50.444;30.540;2022-09-09T17:11:16;15.30;95.10
21429;DHT22;10875;50.444;30.540;2022-09-09T17:13:45;15.30;95.10
21429;DHT22;10875;50.444;30.540;2022-09-09T17:16:12;15.30;95.10
21429;DHT22;10875;50.444;30.540;2022-09-09T17:18:37;15.20;95.20
21429;DHT22;10875;50.444;30.540;2022-09-09T17:21:06;15.30;95.00
21429;DHT22;10875;50.444;30.540;2022-09-09T17:23:34;15.30;94.90
21429;DHT22;10875;50.444;30.540;2022-09-09T17:26:04;15.30;94.90
21429;DHT22;10875;50.444;30.540;2022-09-09T17:28:30;15.30;94.20
21429;DHT22;10875;50.444;30.540;2022-09-09T17:31:00;15.30;94.00
21429;DHT22;10875;50.444;30.540;2022-09-09T17:33:28;15.40;94.20
21429;DHT22;10875;50.444;30.540;2022-09-09T17:35:57;15.40;94.00
21429;DHT22;10875;50.444;30.540;2022-09-09T17:38:23;15.30;93.80
21429;DHT22;10875;50.444;30.540;2022-09-09T17:40:49;15.40;93.80